Kezdőlap
METAR-TAF:

METAR-TAF

Repülőterek :

Dallas-Fort Worth, Texas, Amerikai Egyesült Államok

földrajzi szélesség: 32-53-49N, földrajzi hosszúság: 097-01-19W, magasság: 183 m

Jelenlegi meteorológiai megfigyelések

A jelentés 29 perccel ezelõtt készült, 03:53 UTC
Északnyugati szél 9 kt
Hőmérséklet 5°C
Páratartalom 65%
Légköri nyomás 1028 hPa
Látótávolság: 16.1 km
Derült ég

METAR: KDFW 100353Z 31009KT 10SM CLR 05/M01 A3036 RMK AO2 SLP280 T00501011 $

Idő: 22:22 (04:22 UTC)

Előrejelzés

A jelentés 1 órával és 22 perccel ezelõtt készült, 03:00 UTC
Az előrejelzés 10-én 03 óra UTC és 11-én 06 óra UTC között érvényes
Északnyugati szél 7 kt
Látótávolság: 10 km
Derült ég
10-én 2200 órától UTC szerint
Déli szél 4 kt
Látótávolság: 10 km
Derült ég

TAF: KDFW 100300Z 1003/1106 31007KT P6SM SKC FM102200 19004KT P6SM SKC

Meteorológiai megfigyelések és előrejelzések több, mint 4000 repülőtéren (METAR és TAF jelentéseket).

A térképen piros és sárga pontok jelzik az elérhető meteorológiai állomásokat.

Mozgassa az egeret a pont fölött, hogy megjelenjen az állomás neve.

Azután kattintson az időjárási megfigyelések és előrejelzések megtekintéséhez.

A térkép megváltoztatása: kattintson a fekete keresztel jelölt zöld gombra ráközelítéshez, a vonallal jelölt zöld gombra távolításhoz, vagy a zöld nyilakra a szomszédos térképek eléréséhez.


METAR-TAF: